<?xml version="1.0" encoding="UTF-8" standalone="no" ?>
<gpx xmlns="http://www.topografix.com/GPX/1/1" creator="MapSource 6.11.6" version="1.1" xmlns:xsi="http://www.w3.org/2001/XMLSchema-instance" xsi:schemaLocation="http://www.topografix.com/GPX/1/1 http://www.topografix.com/GPX/1/1/gpx.xsd">

  <metadata>
    <link href="http://www.garmin.com">
      <text>Garmin International</text>
    </link>
    <time>2008-10-30T19:50:22Z</time>
    <bounds maxlat="50.556872" maxlon="6.276545" minlat="50.549977" minlon="6.238217"/>
  </metadata>

  <trk>
    <name>Monschau Rundweg</name>
    <extensions>
      <gpxx:TrackExtension xmlns:gpxx="http://www.garmin.com/xmlschemas/GpxExtensions/v3" xmlns:xsi="http://www.w3.org/2001/XMLSchema-instance" xsi:schemaLocation="http://www.garmin.com/xmlschemas/GpxExtensions/v3 http://www.garmin.com/xmlschemas/GpxExtensions/v3/GpxExtensionsv3.xsd">
        <gpxx:DisplayColor>White</gpxx:DisplayColor>
      </gpxx:TrackExtension>
    </extensions>
    <trkseg>
      <trkpt lat="50.554526" lon="6.245117">
        <ele>423.000000</ele>
        <time>2008-01-30T12:01:32Z</time>
      </trkpt>
      <trkpt lat="50.554573" lon="6.245171">
        <ele>423.000000</ele>
        <time>2008-01-30T12:01:35Z</time>
      </trkpt>
      <trkpt lat="50.554722" lon="6.245388">
        <ele>406.000000</ele>
        <time>2008-01-30T12:01:43Z</time>
      </trkpt>
      <trkpt lat="50.554725" lon="6.245896">
        <ele>413.000000</ele>
        <time>2008-01-30T12:01:56Z</time>
      </trkpt>
      <trkpt lat="50.554587" lon="6.246144">
        <ele>413.000000</ele>
        <time>2008-01-30T12:02:04Z</time>
      </trkpt>
      <trkpt lat="50.554379" lon="6.246495">
        <ele>404.000000</ele>
        <time>2008-01-30T12:02:16Z</time>
      </trkpt>
      <trkpt lat="50.554241" lon="6.247096">
        <ele>422.000000</ele>
        <time>2008-01-30T12:02:33Z</time>
      </trkpt>
      <trkpt lat="50.554165" lon="6.247326">
        <ele>422.000000</ele>
        <time>2008-01-30T12:02:39Z</time>
      </trkpt>
      <trkpt lat="50.554064" lon="6.247628">
        <ele>422.000000</ele>
        <time>2008-01-30T12:02:48Z</time>
      </trkpt>
      <trkpt lat="50.553926" lon="6.247862">
        <ele>422.000000</ele>
        <time>2008-01-30T12:02:56Z</time>
      </trkpt>
      <trkpt lat="50.553830" lon="6.247966">
        <ele>440.000000</ele>
        <time>2008-01-30T12:03:01Z</time>
      </trkpt>
      <trkpt lat="50.553677" lon="6.247975">
        <ele>430.000000</ele>
        <time>2008-01-30T12:03:07Z</time>
      </trkpt>
      <trkpt lat="50.553559" lon="6.247926">
        <ele>430.000000</ele>
        <time>2008-01-30T12:03:12Z</time>
      </trkpt>
      <trkpt lat="50.553448" lon="6.247819">
        <ele>417.000000</ele>
        <time>2008-01-30T12:03:17Z</time>
      </trkpt>
      <trkpt lat="50.553365" lon="6.247697">
        <ele>417.000000</ele>
        <time>2008-01-30T12:03:21Z</time>
      </trkpt>
      <trkpt lat="50.553269" lon="6.247463">
        <ele>417.000000</ele>
        <time>2008-01-30T12:03:29Z</time>
      </trkpt>
      <trkpt lat="50.553154" lon="6.247173">
        <ele>417.000000</ele>
        <time>2008-01-30T12:03:37Z</time>
      </trkpt>
      <trkpt lat="50.553030" lon="6.246870">
        <ele>405.000000</ele>
        <time>2008-01-30T12:03:46Z</time>
      </trkpt>
      <trkpt lat="50.552936" lon="6.246678">
        <ele>405.000000</ele>
        <time>2008-01-30T12:03:53Z</time>
      </trkpt>
      <trkpt lat="50.552798" lon="6.246531">
        <ele>405.000000</ele>
        <time>2008-01-30T12:03:59Z</time>
      </trkpt>
      <trkpt lat="50.552652" lon="6.246468">
        <ele>405.000000</ele>
        <time>2008-01-30T12:04:05Z</time>
      </trkpt>
      <trkpt lat="50.552507" lon="6.246420">
        <ele>405.000000</ele>
        <time>2008-01-30T12:04:11Z</time>
      </trkpt>
      <trkpt lat="50.552373" lon="6.246428">
        <ele>405.000000</ele>
        <time>2008-01-30T12:04:17Z</time>
      </trkpt>
      <trkpt lat="50.552249" lon="6.246506">
        <ele>405.000000</ele>
        <time>2008-01-30T12:04:22Z</time>
      </trkpt>
      <trkpt lat="50.552127" lon="6.246711">
        <ele>405.000000</ele>
        <time>2008-01-30T12:04:29Z</time>
      </trkpt>
      <trkpt lat="50.552061" lon="6.246926">
        <ele>425.000000</ele>
        <time>2008-01-30T12:04:35Z</time>
      </trkpt>
      <trkpt lat="50.552031" lon="6.247196">
        <ele>420.000000</ele>
        <time>2008-01-30T12:04:42Z</time>
      </trkpt>
      <trkpt lat="50.552128" lon="6.248263">
        <ele>406.000000</ele>
        <time>2008-01-30T12:05:10Z</time>
      </trkpt>
      <trkpt lat="50.552205" lon="6.248470">
        <ele>406.000000</ele>
        <time>2008-01-30T12:05:16Z</time>
      </trkpt>
      <trkpt lat="50.552309" lon="6.248676">
        <ele>406.000000</ele>
        <time>2008-01-30T12:05:22Z</time>
      </trkpt>
      <trkpt lat="50.552380" lon="6.249025">
        <ele>407.000000</ele>
        <time>2008-01-30T12:05:32Z</time>
      </trkpt>
      <trkpt lat="50.552657" lon="6.250872">
        <ele>406.000000</ele>
        <time>2008-01-30T12:06:20Z</time>
      </trkpt>
      <trkpt lat="50.552715" lon="6.251404">
        <ele>404.000000</ele>
        <time>2008-01-30T12:06:34Z</time>
      </trkpt>
      <trkpt lat="50.552741" lon="6.251756">
        <ele>404.000000</ele>
        <time>2008-01-30T12:06:43Z</time>
      </trkpt>
      <trkpt lat="50.552784" lon="6.252417">
        <ele>402.000000</ele>
        <time>2008-01-30T12:07:00Z</time>
      </trkpt>
      <trkpt lat="50.552798" lon="6.252642">
        <ele>402.000000</ele>
        <time>2008-01-30T12:07:05Z</time>
      </trkpt>
      <trkpt lat="50.553327" lon="6.254107">
        <ele>412.000000</ele>
        <time>2008-01-30T12:07:48Z</time>
      </trkpt>
      <trkpt lat="50.553566" lon="6.254700">
        <ele>403.000000</ele>
        <time>2008-01-30T12:08:06Z</time>
      </trkpt>
      <trkpt lat="50.553915" lon="6.255385">
        <ele>434.000000</ele>
        <time>2008-01-30T12:08:28Z</time>
      </trkpt>
      <trkpt lat="50.554141" lon="6.255838">
        <ele>420.000000</ele>
        <time>2008-01-30T12:08:43Z</time>
      </trkpt>
      <trkpt lat="50.554311" lon="6.256167">
        <ele>420.000000</ele>
        <time>2008-01-30T12:08:54Z</time>
      </trkpt>
      <trkpt lat="50.554414" lon="6.256358">
        <ele>405.000000</ele>
        <time>2008-01-30T12:09:00Z</time>
      </trkpt>
      <trkpt lat="50.554537" lon="6.256591">
        <ele>405.000000</ele>
        <time>2008-01-30T12:09:08Z</time>
      </trkpt>
      <trkpt lat="50.554650" lon="6.256825">
        <ele>441.000000</ele>
        <time>2008-01-30T12:09:15Z</time>
      </trkpt>
      <trkpt lat="50.554784" lon="6.257156">
        <ele>423.000000</ele>
        <time>2008-01-30T12:09:25Z</time>
      </trkpt>
      <trkpt lat="50.554899" lon="6.257445">
        <ele>423.000000</ele>
        <time>2008-01-30T12:09:34Z</time>
      </trkpt>
      <trkpt lat="50.554985" lon="6.257680">
        <ele>423.000000</ele>
        <time>2008-01-30T12:09:41Z</time>
      </trkpt>
      <trkpt lat="50.555098" lon="6.257899">
        <ele>423.000000</ele>
        <time>2008-01-30T12:09:48Z</time>
      </trkpt>
      <trkpt lat="50.555246" lon="6.258060">
        <ele>405.000000</ele>
        <time>2008-01-30T12:09:55Z</time>
      </trkpt>
      <trkpt lat="50.555358" lon="6.258237">
        <ele>405.000000</ele>
        <time>2008-01-30T12:10:02Z</time>
      </trkpt>
      <trkpt lat="50.555506" lon="6.258440">
        <ele>442.000000</ele>
        <time>2008-01-30T12:10:10Z</time>
      </trkpt>
      <trkpt lat="50.555746" lon="6.258666">
        <ele>442.000000</ele>
        <time>2008-01-30T12:10:21Z</time>
      </trkpt>
      <trkpt lat="50.555883" lon="6.258757">
        <ele>428.000000</ele>
        <time>2008-01-30T12:10:27Z</time>
      </trkpt>
      <trkpt lat="50.556082" lon="6.258844">
        <ele>428.000000</ele>
        <time>2008-01-30T12:10:35Z</time>
      </trkpt>
      <trkpt lat="50.556152" lon="6.259109">
        <ele>428.000000</ele>
        <time>2008-01-30T12:10:42Z</time>
      </trkpt>
      <trkpt lat="50.556230" lon="6.259386">
        <ele>428.000000</ele>
        <time>2008-01-30T12:10:50Z</time>
      </trkpt>
      <trkpt lat="50.556282" lon="6.259680">
        <ele>457.000000</ele>
        <time>2008-01-30T12:10:58Z</time>
      </trkpt>
      <trkpt lat="50.556360" lon="6.259957">
        <ele>457.000000</ele>
        <time>2008-01-30T12:11:05Z</time>
      </trkpt>
      <trkpt lat="50.556448" lon="6.260249">
        <ele>457.000000</ele>
        <time>2008-01-30T12:11:14Z</time>
      </trkpt>
      <trkpt lat="50.556565" lon="6.260637">
        <ele>452.000000</ele>
        <time>2008-01-30T12:11:25Z</time>
      </trkpt>
      <trkpt lat="50.556608" lon="6.260931">
        <ele>452.000000</ele>
        <time>2008-01-30T12:11:32Z</time>
      </trkpt>
      <trkpt lat="50.556652" lon="6.261281">
        <ele>447.000000</ele>
        <time>2008-01-30T12:11:41Z</time>
      </trkpt>
      <trkpt lat="50.556678" lon="6.261605">
        <ele>447.000000</ele>
        <time>2008-01-30T12:11:50Z</time>
      </trkpt>
      <trkpt lat="50.556721" lon="6.261927">
        <ele>447.000000</ele>
        <time>2008-01-30T12:11:58Z</time>
      </trkpt>
      <trkpt lat="50.556747" lon="6.262236">
        <ele>447.000000</ele>
        <time>2008-01-30T12:12:06Z</time>
      </trkpt>
      <trkpt lat="50.556762" lon="6.262489">
        <ele>447.000000</ele>
        <time>2008-01-30T12:12:12Z</time>
      </trkpt>
      <trkpt lat="50.556777" lon="6.262742">
        <ele>447.000000</ele>
        <time>2008-01-30T12:12:19Z</time>
      </trkpt>
      <trkpt lat="50.556782" lon="6.262982">
        <ele>448.000000</ele>
        <time>2008-01-30T12:12:25Z</time>
      </trkpt>
      <trkpt lat="50.556769" lon="6.263166">
        <ele>448.000000</ele>
        <time>2008-01-30T12:12:30Z</time>
      </trkpt>
      <trkpt lat="50.556747" lon="6.263393">
        <ele>448.000000</ele>
        <time>2008-01-30T12:12:35Z</time>
      </trkpt>
      <trkpt lat="50.556772" lon="6.263716">
        <ele>448.000000</ele>
        <time>2008-01-30T12:12:44Z</time>
      </trkpt>
      <trkpt lat="50.556850" lon="6.263952">
        <ele>453.000000</ele>
        <time>2008-01-30T12:12:51Z</time>
      </trkpt>
      <trkpt lat="50.556872" lon="6.264106">
        <ele>453.000000</ele>
        <time>2008-01-30T12:12:55Z</time>
      </trkpt>
      <trkpt lat="50.556813" lon="6.264307">
        <ele>453.000000</ele>
        <time>2008-01-30T12:13:00Z</time>
      </trkpt>
      <trkpt lat="50.556710" lon="6.264496">
        <ele>453.000000</ele>
        <time>2008-01-30T12:13:06Z</time>
      </trkpt>
      <trkpt lat="50.556588" lon="6.264658">
        <ele>459.000000</ele>
        <time>2008-01-30T12:13:13Z</time>
      </trkpt>
      <trkpt lat="50.556493" lon="6.264819">
        <ele>459.000000</ele>
        <time>2008-01-30T12:13:18Z</time>
      </trkpt>
      <trkpt lat="50.556434" lon="6.264992">
        <ele>459.000000</ele>
        <time>2008-01-30T12:13:23Z</time>
      </trkpt>
      <trkpt lat="50.556357" lon="6.265180">
        <ele>459.000000</ele>
        <time>2008-01-30T12:13:29Z</time>
      </trkpt>
      <trkpt lat="50.556247" lon="6.265455">
        <ele>420.000000</ele>
        <time>2008-01-30T12:13:37Z</time>
      </trkpt>
      <trkpt lat="50.556126" lon="6.265687">
        <ele>420.000000</ele>
        <time>2008-01-30T12:13:45Z</time>
      </trkpt>
      <trkpt lat="50.555988" lon="6.265935">
        <ele>420.000000</ele>
        <time>2008-01-30T12:13:53Z</time>
      </trkpt>
      <trkpt lat="50.555859" lon="6.266169">
        <ele>420.000000</ele>
        <time>2008-01-30T12:14:01Z</time>
      </trkpt>
      <trkpt lat="50.555746" lon="6.266345">
        <ele>436.000000</ele>
        <time>2008-01-30T12:14:08Z</time>
      </trkpt>
      <trkpt lat="50.555581" lon="6.266594">
        <ele>436.000000</ele>
        <time>2008-01-30T12:14:17Z</time>
      </trkpt>
      <trkpt lat="50.555400" lon="6.266915">
        <ele>390.000000</ele>
        <time>2008-01-30T12:14:28Z</time>
      </trkpt>
      <trkpt lat="50.555324" lon="6.267131">
        <ele>396.000000</ele>
        <time>2008-01-30T12:14:34Z</time>
      </trkpt>
      <trkpt lat="50.555312" lon="6.267358">
        <ele>396.000000</ele>
        <time>2008-01-30T12:14:40Z</time>
      </trkpt>
      <trkpt lat="50.555317" lon="6.267611">
        <ele>396.000000</ele>
        <time>2008-01-30T12:14:46Z</time>
      </trkpt>
      <trkpt lat="50.555325" lon="6.267921">
        <ele>402.000000</ele>
        <time>2008-01-30T12:14:54Z</time>
      </trkpt>
      <trkpt lat="50.555349" lon="6.268202">
        <ele>402.000000</ele>
        <time>2008-01-30T12:15:01Z</time>
      </trkpt>
      <trkpt lat="50.555392" lon="6.268468">
        <ele>402.000000</ele>
        <time>2008-01-30T12:15:08Z</time>
      </trkpt>
      <trkpt lat="50.555425" lon="6.268734">
        <ele>437.000000</ele>
        <time>2008-01-30T12:15:15Z</time>
      </trkpt>
      <trkpt lat="50.555467" lon="6.269014">
        <ele>423.000000</ele>
        <time>2008-01-30T12:15:23Z</time>
      </trkpt>
      <trkpt lat="50.555518" lon="6.269265">
        <ele>423.000000</ele>
        <time>2008-01-30T12:15:29Z</time>
      </trkpt>
      <trkpt lat="50.555559" lon="6.269489">
        <ele>423.000000</ele>
        <time>2008-01-30T12:15:35Z</time>
      </trkpt>
      <trkpt lat="50.555612" lon="6.269824">
        <ele>408.000000</ele>
        <time>2008-01-30T12:15:44Z</time>
      </trkpt>
      <trkpt lat="50.555608" lon="6.270022">
        <ele>408.000000</ele>
        <time>2008-01-30T12:15:49Z</time>
      </trkpt>
      <trkpt lat="50.555603" lon="6.270192">
        <ele>408.000000</ele>
        <time>2008-01-30T12:15:53Z</time>
      </trkpt>
      <trkpt lat="50.555607" lon="6.270375">
        <ele>408.000000</ele>
        <time>2008-01-30T12:15:58Z</time>
      </trkpt>
      <trkpt lat="50.555610" lon="6.270516">
        <ele>401.000000</ele>
        <time>2008-01-30T12:16:02Z</time>
      </trkpt>
      <trkpt lat="50.555686" lon="6.270681">
        <ele>401.000000</ele>
        <time>2008-01-30T12:16:07Z</time>
      </trkpt>
      <trkpt lat="50.555818" lon="6.270942">
        <ele>401.000000</ele>
        <time>2008-01-30T12:16:15Z</time>
      </trkpt>
      <trkpt lat="50.555905" lon="6.271191">
        <ele>401.000000</ele>
        <time>2008-01-30T12:16:22Z</time>
      </trkpt>
      <trkpt lat="50.555965" lon="6.271455">
        <ele>393.000000</ele>
        <time>2008-01-30T12:16:30Z</time>
      </trkpt>
      <trkpt lat="50.556035" lon="6.271734">
        <ele>393.000000</ele>
        <time>2008-01-30T12:16:37Z</time>
      </trkpt>
      <trkpt lat="50.556137" lon="6.272264">
        <ele>395.000000</ele>
        <time>2008-01-30T12:16:51Z</time>
      </trkpt>
      <trkpt lat="50.556185" lon="6.272769">
        <ele>395.000000</ele>
        <time>2008-01-30T12:17:04Z</time>
      </trkpt>
      <trkpt lat="50.556251" lon="6.273316">
        <ele>409.000000</ele>
        <time>2008-01-30T12:17:18Z</time>
      </trkpt>
      <trkpt lat="50.556292" lon="6.273892">
        <ele>404.000000</ele>
        <time>2008-01-30T12:17:33Z</time>
      </trkpt>
      <trkpt lat="50.556353" lon="6.274594">
        <ele>398.000000</ele>
        <time>2008-01-30T12:17:51Z</time>
      </trkpt>
      <trkpt lat="50.556356" lon="6.275103">
        <ele>398.000000</ele>
        <time>2008-01-30T12:18:04Z</time>
      </trkpt>
      <trkpt lat="50.556378" lon="6.275666">
        <ele>393.000000</ele>
        <time>2008-01-30T12:18:18Z</time>
      </trkpt>
      <trkpt lat="50.556442" lon="6.276481">
        <ele>388.000000</ele>
        <time>2008-01-30T12:18:39Z</time>
      </trkpt>
      <trkpt lat="50.556066" lon="6.276545">
        <ele>386.000000</ele>
        <time>2008-01-30T12:18:55Z</time>
      </trkpt>
      <trkpt lat="50.555939" lon="6.276496">
        <ele>386.000000</ele>
        <time>2008-01-30T12:19:00Z</time>
      </trkpt>
      <trkpt lat="50.555793" lon="6.276391">
        <ele>386.000000</ele>
        <time>2008-01-30T12:19:06Z</time>
      </trkpt>
      <trkpt lat="50.555699" lon="6.276227">
        <ele>389.000000</ele>
        <time>2008-01-30T12:19:12Z</time>
      </trkpt>
      <trkpt lat="50.555511" lon="6.275885">
        <ele>389.000000</ele>
        <time>2008-01-30T12:19:23Z</time>
      </trkpt>
      <trkpt lat="50.555180" lon="6.275918">
        <ele>401.000000</ele>
        <time>2008-01-30T12:19:37Z</time>
      </trkpt>
      <trkpt lat="50.554973" lon="6.275930">
        <ele>401.000000</ele>
        <time>2008-01-30T12:19:45Z</time>
      </trkpt>
      <trkpt lat="50.554749" lon="6.275957">
        <ele>401.000000</ele>
        <time>2008-01-30T12:19:54Z</time>
      </trkpt>
      <trkpt lat="50.554659" lon="6.275962">
        <ele>401.000000</ele>
        <time>2008-01-30T12:19:57Z</time>
      </trkpt>
      <trkpt lat="50.554504" lon="6.275859">
        <ele>410.000000</ele>
        <time>2008-01-30T12:20:04Z</time>
      </trkpt>
      <trkpt lat="50.554245" lon="6.275563">
        <ele>410.000000</ele>
        <time>2008-01-30T12:20:17Z</time>
      </trkpt>
      <trkpt lat="50.553895" lon="6.275216">
        <ele>415.000000</ele>
        <time>2008-01-30T12:20:34Z</time>
      </trkpt>
      <trkpt lat="50.553713" lon="6.275114">
        <ele>410.000000</ele>
        <time>2008-01-30T12:20:41Z</time>
      </trkpt>
      <trkpt lat="50.553502" lon="6.274928">
        <ele>410.000000</ele>
        <time>2008-01-30T12:20:51Z</time>
      </trkpt>
      <trkpt lat="50.553326" lon="6.274727">
        <ele>410.000000</ele>
        <time>2008-01-30T12:21:00Z</time>
      </trkpt>
      <trkpt lat="50.553253" lon="6.274646">
        <ele>410.000000</ele>
        <time>2008-01-30T12:21:03Z</time>
      </trkpt>
      <trkpt lat="50.553133" lon="6.274540">
        <ele>420.000000</ele>
        <time>2008-01-30T12:21:09Z</time>
      </trkpt>
      <trkpt lat="50.552940" lon="6.274368">
        <ele>420.000000</ele>
        <time>2008-01-30T12:21:18Z</time>
      </trkpt>
      <trkpt lat="50.552791" lon="6.274137">
        <ele>423.000000</ele>
        <time>2008-01-30T12:21:26Z</time>
      </trkpt>
      <trkpt lat="50.552411" lon="6.273636">
        <ele>424.000000</ele>
        <time>2008-01-30T12:21:46Z</time>
      </trkpt>
      <trkpt lat="50.552272" lon="6.273489">
        <ele>424.000000</ele>
        <time>2008-01-30T12:21:53Z</time>
      </trkpt>
      <trkpt lat="50.552171" lon="6.273368">
        <ele>424.000000</ele>
        <time>2008-01-30T12:21:58Z</time>
      </trkpt>
      <trkpt lat="50.552059" lon="6.273219">
        <ele>425.000000</ele>
        <time>2008-01-30T12:22:04Z</time>
      </trkpt>
      <trkpt lat="50.551939" lon="6.273071">
        <ele>425.000000</ele>
        <time>2008-01-30T12:22:10Z</time>
      </trkpt>
      <trkpt lat="50.551800" lon="6.272910">
        <ele>435.000000</ele>
        <time>2008-01-30T12:22:17Z</time>
      </trkpt>
      <trkpt lat="50.551690" lon="6.272803">
        <ele>435.000000</ele>
        <time>2008-01-30T12:22:22Z</time>
      </trkpt>
      <trkpt lat="50.551580" lon="6.272711">
        <ele>435.000000</ele>
        <time>2008-01-30T12:22:27Z</time>
      </trkpt>
      <trkpt lat="50.551415" lon="6.272607">
        <ele>435.000000</ele>
        <time>2008-01-30T12:22:34Z</time>
      </trkpt>
      <trkpt lat="50.551279" lon="6.272559">
        <ele>435.000000</ele>
        <time>2008-01-30T12:22:39Z</time>
      </trkpt>
      <trkpt lat="50.551198" lon="6.272521">
        <ele>440.000000</ele>
        <time>2008-01-30T12:22:43Z</time>
      </trkpt>
      <trkpt lat="50.551105" lon="6.272413">
        <ele>440.000000</ele>
        <time>2008-01-30T12:22:47Z</time>
      </trkpt>
      <trkpt lat="50.551001" lon="6.272194">
        <ele>440.000000</ele>
        <time>2008-01-30T12:22:54Z</time>
      </trkpt>
      <trkpt lat="50.550925" lon="6.272015">
        <ele>438.000000</ele>
        <time>2008-01-30T12:23:00Z</time>
      </trkpt>
      <trkpt lat="50.550831" lon="6.271836">
        <ele>438.000000</ele>
        <time>2008-01-30T12:23:06Z</time>
      </trkpt>
      <trkpt lat="50.550719" lon="6.271688">
        <ele>438.000000</ele>
        <time>2008-01-30T12:23:12Z</time>
      </trkpt>
      <trkpt lat="50.550616" lon="6.271510">
        <ele>438.000000</ele>
        <time>2008-01-30T12:23:18Z</time>
      </trkpt>
      <trkpt lat="50.550478" lon="6.271349">
        <ele>438.000000</ele>
        <time>2008-01-30T12:23:25Z</time>
      </trkpt>
      <trkpt lat="50.550348" lon="6.271187">
        <ele>446.000000</ele>
        <time>2008-01-30T12:23:31Z</time>
      </trkpt>
      <trkpt lat="50.550238" lon="6.271080">
        <ele>446.000000</ele>
        <time>2008-01-30T12:23:36Z</time>
      </trkpt>
      <trkpt lat="50.550128" lon="6.270988">
        <ele>446.000000</ele>
        <time>2008-01-30T12:23:41Z</time>
      </trkpt>
      <trkpt lat="50.550026" lon="6.270881">
        <ele>446.000000</ele>
        <time>2008-01-30T12:23:46Z</time>
      </trkpt>
      <trkpt lat="50.549977" lon="6.270700">
        <ele>446.000000</ele>
        <time>2008-01-30T12:23:51Z</time>
      </trkpt>
      <trkpt lat="50.549983" lon="6.270587">
        <ele>446.000000</ele>
        <time>2008-01-30T12:23:54Z</time>
      </trkpt>
      <trkpt lat="50.550026" lon="6.270472">
        <ele>446.000000</ele>
        <time>2008-01-30T12:23:58Z</time>
      </trkpt>
      <trkpt lat="50.550159" lon="6.270408">
        <ele>454.000000</ele>
        <time>2008-01-30T12:24:03Z</time>
      </trkpt>
      <trkpt lat="50.550374" lon="6.270381">
        <ele>454.000000</ele>
        <time>2008-01-30T12:24:12Z</time>
      </trkpt>
      <trkpt lat="50.550582" lon="6.270411">
        <ele>466.000000</ele>
        <time>2008-01-30T12:24:20Z</time>
      </trkpt>
      <trkpt lat="50.550790" lon="6.270470">
        <ele>452.000000</ele>
        <time>2008-01-30T12:24:29Z</time>
      </trkpt>
      <trkpt lat="50.550917" lon="6.270533">
        <ele>452.000000</ele>
        <time>2008-01-30T12:24:34Z</time>
      </trkpt>
      <trkpt lat="50.551101" lon="6.270692">
        <ele>452.000000</ele>
        <time>2008-01-30T12:24:42Z</time>
      </trkpt>
      <trkpt lat="50.551274" lon="6.270809">
        <ele>456.000000</ele>
        <time>2008-01-30T12:24:50Z</time>
      </trkpt>
      <trkpt lat="50.551431" lon="6.270983">
        <ele>456.000000</ele>
        <time>2008-01-30T12:24:58Z</time>
      </trkpt>
      <trkpt lat="50.551623" lon="6.271099">
        <ele>456.000000</ele>
        <time>2008-01-30T12:25:06Z</time>
      </trkpt>
      <trkpt lat="50.551795" lon="6.271174">
        <ele>456.000000</ele>
        <time>2008-01-30T12:25:13Z</time>
      </trkpt>
      <trkpt lat="50.551986" lon="6.271234">
        <ele>456.000000</ele>
        <time>2008-01-30T12:25:21Z</time>
      </trkpt>
      <trkpt lat="50.552138" lon="6.271211">
        <ele>452.000000</ele>
        <time>2008-01-30T12:25:27Z</time>
      </trkpt>
      <trkpt lat="50.552272" lon="6.271189">
        <ele>452.000000</ele>
        <time>2008-01-30T12:25:32Z</time>
      </trkpt>
      <trkpt lat="50.552405" lon="6.271110">
        <ele>452.000000</ele>
        <time>2008-01-30T12:25:38Z</time>
      </trkpt>
      <trkpt lat="50.552547" lon="6.271018">
        <ele>452.000000</ele>
        <time>2008-01-30T12:25:44Z</time>
      </trkpt>
      <trkpt lat="50.552660" lon="6.270856">
        <ele>452.000000</ele>
        <time>2008-01-30T12:25:50Z</time>
      </trkpt>
      <trkpt lat="50.552781" lon="6.270651">
        <ele>452.000000</ele>
        <time>2008-01-30T12:25:57Z</time>
      </trkpt>
      <trkpt lat="50.552759" lon="6.270483">
        <ele>452.000000</ele>
        <time>2008-01-30T12:26:02Z</time>
      </trkpt>
      <trkpt lat="50.552650" lon="6.270024">
        <ele>458.000000</ele>
        <time>2008-01-30T12:26:14Z</time>
      </trkpt>
      <trkpt lat="50.552532" lon="6.269607">
        <ele>458.000000</ele>
        <time>2008-01-30T12:26:26Z</time>
      </trkpt>
      <trkpt lat="50.552413" lon="6.269120">
        <ele>457.000000</ele>
        <time>2008-01-30T12:26:39Z</time>
      </trkpt>
      <trkpt lat="50.552330" lon="6.268645">
        <ele>457.000000</ele>
        <time>2008-01-30T12:26:52Z</time>
      </trkpt>
      <trkpt lat="50.552289" lon="6.268083">
        <ele>457.000000</ele>
        <time>2008-01-30T12:27:06Z</time>
      </trkpt>
      <trkpt lat="50.552278" lon="6.267575">
        <ele>454.000000</ele>
        <time>2008-01-30T12:27:19Z</time>
      </trkpt>
      <trkpt lat="50.552255" lon="6.266998">
        <ele>452.000000</ele>
        <time>2008-01-30T12:27:34Z</time>
      </trkpt>
      <trkpt lat="50.552248" lon="6.266321">
        <ele>452.000000</ele>
        <time>2008-01-30T12:27:51Z</time>
      </trkpt>
      <trkpt lat="50.552244" lon="6.265757">
        <ele>450.000000</ele>
        <time>2008-01-30T12:28:05Z</time>
      </trkpt>
      <trkpt lat="50.552237" lon="6.265080">
        <ele>448.000000</ele>
        <time>2008-01-30T12:28:22Z</time>
      </trkpt>
      <trkpt lat="50.552234" lon="6.264558">
        <ele>449.000000</ele>
        <time>2008-01-30T12:28:36Z</time>
      </trkpt>
      <trkpt lat="50.552257" lon="6.264034">
        <ele>449.000000</ele>
        <time>2008-01-30T12:28:49Z</time>
      </trkpt>
      <trkpt lat="50.552337" lon="6.263592">
        <ele>449.000000</ele>
        <time>2008-01-30T12:29:01Z</time>
      </trkpt>
      <trkpt lat="50.552459" lon="6.263063">
        <ele>449.000000</ele>
        <time>2008-01-30T12:29:15Z</time>
      </trkpt>
      <trkpt lat="50.552557" lon="6.262634">
        <ele>454.000000</ele>
        <time>2008-01-30T12:29:27Z</time>
      </trkpt>
      <trkpt lat="50.552655" lon="6.262205">
        <ele>454.000000</ele>
        <time>2008-01-30T12:29:38Z</time>
      </trkpt>
      <trkpt lat="50.552745" lon="6.261833">
        <ele>458.000000</ele>
        <time>2008-01-30T12:29:48Z</time>
      </trkpt>
      <trkpt lat="50.552834" lon="6.261404">
        <ele>458.000000</ele>
        <time>2008-01-30T12:30:00Z</time>
      </trkpt>
      <trkpt lat="50.552932" lon="6.261003">
        <ele>454.000000</ele>
        <time>2008-01-30T12:30:11Z</time>
      </trkpt>
      <trkpt lat="50.553065" lon="6.260530">
        <ele>454.000000</ele>
        <time>2008-01-30T12:30:24Z</time>
      </trkpt>
      <trkpt lat="50.553110" lon="6.260146">
        <ele>458.000000</ele>
        <time>2008-01-30T12:30:34Z</time>
      </trkpt>
      <trkpt lat="50.553112" lon="6.259835">
        <ele>458.000000</ele>
        <time>2008-01-30T12:30:42Z</time>
      </trkpt>
      <trkpt lat="50.553084" lon="6.259414">
        <ele>450.000000</ele>
        <time>2008-01-30T12:30:53Z</time>
      </trkpt>
      <trkpt lat="50.553030" lon="6.259050">
        <ele>450.000000</ele>
        <time>2008-01-30T12:31:02Z</time>
      </trkpt>
      <trkpt lat="50.552916" lon="6.258774">
        <ele>450.000000</ele>
        <time>2008-01-30T12:31:10Z</time>
      </trkpt>
      <trkpt lat="50.552791" lon="6.258443">
        <ele>461.000000</ele>
        <time>2008-01-30T12:31:20Z</time>
      </trkpt>
      <trkpt lat="50.552666" lon="6.258111">
        <ele>461.000000</ele>
        <time>2008-01-30T12:31:30Z</time>
      </trkpt>
      <trkpt lat="50.552533" lon="6.257808">
        <ele>449.000000</ele>
        <time>2008-01-30T12:31:39Z</time>
      </trkpt>
      <trkpt lat="50.552427" lon="6.257476">
        <ele>449.000000</ele>
        <time>2008-01-30T12:31:49Z</time>
      </trkpt>
      <trkpt lat="50.552412" lon="6.257223">
        <ele>449.000000</ele>
        <time>2008-01-30T12:31:55Z</time>
      </trkpt>
      <trkpt lat="50.552480" lon="6.257063">
        <ele>438.000000</ele>
        <time>2008-01-30T12:32:00Z</time>
      </trkpt>
      <trkpt lat="50.552595" lon="6.256986">
        <ele>438.000000</ele>
        <time>2008-01-30T12:32:05Z</time>
      </trkpt>
      <trkpt lat="50.552667" lon="6.256982">
        <ele>438.000000</ele>
        <time>2008-01-30T12:32:08Z</time>
      </trkpt>
      <trkpt lat="50.552731" lon="6.257035">
        <ele>438.000000</ele>
        <time>2008-01-30T12:32:11Z</time>
      </trkpt>
      <trkpt lat="50.552823" lon="6.257114">
        <ele>449.000000</ele>
        <time>2008-01-30T12:32:15Z</time>
      </trkpt>
      <trkpt lat="50.552771" lon="6.256835">
        <ele>438.000000</ele>
        <time>2008-01-30T12:32:23Z</time>
      </trkpt>
      <trkpt lat="50.552722" lon="6.256668">
        <ele>438.000000</ele>
        <time>2008-01-30T12:32:27Z</time>
      </trkpt>
      <trkpt lat="50.552647" lon="6.256546">
        <ele>438.000000</ele>
        <time>2008-01-30T12:32:32Z</time>
      </trkpt>
      <trkpt lat="50.552552" lon="6.256325">
        <ele>438.000000</ele>
        <time>2008-01-30T12:32:38Z</time>
      </trkpt>
      <trkpt lat="50.552476" lon="6.256146">
        <ele>425.000000</ele>
        <time>2008-01-30T12:32:44Z</time>
      </trkpt>
      <trkpt lat="50.552409" lon="6.255953">
        <ele>425.000000</ele>
        <time>2008-01-30T12:32:49Z</time>
      </trkpt>
      <trkpt lat="50.552365" lon="6.255617">
        <ele>425.000000</ele>
        <time>2008-01-30T12:32:58Z</time>
      </trkpt>
      <trkpt lat="50.552307" lon="6.255450">
        <ele>425.000000</ele>
        <time>2008-01-30T12:33:03Z</time>
      </trkpt>
      <trkpt lat="50.552179" lon="6.255345">
        <ele>412.000000</ele>
        <time>2008-01-30T12:33:09Z</time>
      </trkpt>
      <trkpt lat="50.552033" lon="6.255269">
        <ele>435.000000</ele>
        <time>2008-01-30T12:33:15Z</time>
      </trkpt>
      <trkpt lat="50.551878" lon="6.255193">
        <ele>435.000000</ele>
        <time>2008-01-30T12:33:21Z</time>
      </trkpt>
      <trkpt lat="50.551801" lon="6.254591">
        <ele>435.000000</ele>
        <time>2008-01-30T12:33:37Z</time>
      </trkpt>
      <trkpt lat="50.551712" lon="6.254229">
        <ele>434.000000</ele>
        <time>2008-01-30T12:33:47Z</time>
      </trkpt>
      <trkpt lat="50.551630" lon="6.253824">
        <ele>434.000000</ele>
        <time>2008-01-30T12:33:58Z</time>
      </trkpt>
      <trkpt lat="50.551523" lon="6.253492">
        <ele>434.000000</ele>
        <time>2008-01-30T12:34:07Z</time>
      </trkpt>
      <trkpt lat="50.551459" lon="6.253044">
        <ele>434.000000</ele>
        <time>2008-01-30T12:34:19Z</time>
      </trkpt>
      <trkpt lat="50.551369" lon="6.252654">
        <ele>436.000000</ele>
        <time>2008-01-30T12:34:29Z</time>
      </trkpt>
      <trkpt lat="50.551294" lon="6.252165">
        <ele>436.000000</ele>
        <time>2008-01-30T12:34:42Z</time>
      </trkpt>
      <trkpt lat="50.551110" lon="6.251202">
        <ele>484.000000</ele>
        <time>2008-01-30T12:35:08Z</time>
      </trkpt>
      <trkpt lat="50.550935" lon="6.250661">
        <ele>484.000000</ele>
        <time>2008-01-30T12:35:23Z</time>
      </trkpt>
      <trkpt lat="50.550779" lon="6.250148">
        <ele>483.000000</ele>
        <time>2008-01-30T12:35:38Z</time>
      </trkpt>
      <trkpt lat="50.550652" lon="6.249704">
        <ele>483.000000</ele>
        <time>2008-01-30T12:35:50Z</time>
      </trkpt>
      <trkpt lat="50.550584" lon="6.249496">
        <ele>472.000000</ele>
        <time>2008-01-30T12:35:56Z</time>
      </trkpt>
      <trkpt lat="50.550549" lon="6.249160">
        <ele>472.000000</ele>
        <time>2008-01-30T12:36:05Z</time>
      </trkpt>
      <trkpt lat="50.550530" lon="6.248737">
        <ele>462.000000</ele>
        <time>2008-01-30T12:36:15Z</time>
      </trkpt>
      <trkpt lat="50.550481" lon="6.248571">
        <ele>462.000000</ele>
        <time>2008-01-30T12:36:20Z</time>
      </trkpt>
      <trkpt lat="50.550396" lon="6.248378">
        <ele>491.000000</ele>
        <time>2008-01-30T12:36:26Z</time>
      </trkpt>
      <trkpt lat="50.550292" lon="6.248187">
        <ele>491.000000</ele>
        <time>2008-01-30T12:36:32Z</time>
      </trkpt>
      <trkpt lat="50.550206" lon="6.247952">
        <ele>491.000000</ele>
        <time>2008-01-30T12:36:39Z</time>
      </trkpt>
      <trkpt lat="50.550282" lon="6.247750">
        <ele>494.000000</ele>
        <time>2008-01-30T12:36:45Z</time>
      </trkpt>
      <trkpt lat="50.550392" lon="6.247447">
        <ele>494.000000</ele>
        <time>2008-01-30T12:36:54Z</time>
      </trkpt>
      <trkpt lat="50.550492" lon="6.247145">
        <ele>471.000000</ele>
        <time>2008-01-30T12:37:03Z</time>
      </trkpt>
      <trkpt lat="50.550549" lon="6.246873">
        <ele>479.000000</ele>
        <time>2008-01-30T12:37:10Z</time>
      </trkpt>
      <trkpt lat="50.550613" lon="6.246545">
        <ele>479.000000</ele>
        <time>2008-01-30T12:37:19Z</time>
      </trkpt>
      <trkpt lat="50.550668" lon="6.246189">
        <ele>487.000000</ele>
        <time>2008-01-30T12:37:28Z</time>
      </trkpt>
      <trkpt lat="50.550723" lon="6.245861">
        <ele>487.000000</ele>
        <time>2008-01-30T12:37:37Z</time>
      </trkpt>
      <trkpt lat="50.550788" lon="6.245575">
        <ele>487.000000</ele>
        <time>2008-01-30T12:37:45Z</time>
      </trkpt>
      <trkpt lat="50.550880" lon="6.245287">
        <ele>494.000000</ele>
        <time>2008-01-30T12:37:53Z</time>
      </trkpt>
      <trkpt lat="50.551017" lon="6.244997">
        <ele>494.000000</ele>
        <time>2008-01-30T12:38:02Z</time>
      </trkpt>
      <trkpt lat="50.551154" lon="6.244693">
        <ele>494.000000</ele>
        <time>2008-01-30T12:38:11Z</time>
      </trkpt>
      <trkpt lat="50.551345" lon="6.244414">
        <ele>466.000000</ele>
        <time>2008-01-30T12:38:22Z</time>
      </trkpt>
      <trkpt lat="50.551519" lon="6.244163">
        <ele>466.000000</ele>
        <time>2008-01-30T12:38:31Z</time>
      </trkpt>
      <trkpt lat="50.551843" lon="6.244173">
        <ele>466.000000</ele>
        <time>2008-01-30T12:38:44Z</time>
      </trkpt>
      <trkpt lat="50.551960" lon="6.244194">
        <ele>466.000000</ele>
        <time>2008-01-30T12:38:49Z</time>
      </trkpt>
      <trkpt lat="50.552139" lon="6.244156">
        <ele>443.000000</ele>
        <time>2008-01-30T12:38:56Z</time>
      </trkpt>
      <trkpt lat="50.552272" lon="6.244063">
        <ele>443.000000</ele>
        <time>2008-01-30T12:39:02Z</time>
      </trkpt>
      <trkpt lat="50.552376" lon="6.243930">
        <ele>443.000000</ele>
        <time>2008-01-30T12:39:07Z</time>
      </trkpt>
      <trkpt lat="50.552444" lon="6.243729">
        <ele>453.000000</ele>
        <time>2008-01-30T12:39:13Z</time>
      </trkpt>
      <trkpt lat="50.552467" lon="6.243572">
        <ele>453.000000</ele>
        <time>2008-01-30T12:39:17Z</time>
      </trkpt>
      <trkpt lat="50.552277" lon="6.243541">
        <ele>453.000000</ele>
        <time>2008-01-30T12:39:25Z</time>
      </trkpt>
      <trkpt lat="50.552115" lon="6.243508">
        <ele>453.000000</ele>
        <time>2008-01-30T12:39:31Z</time>
      </trkpt>
      <trkpt lat="50.551887" lon="6.243394">
        <ele>471.000000</ele>
        <time>2008-01-30T12:39:41Z</time>
      </trkpt>
      <trkpt lat="50.551743" lon="6.243374">
        <ele>471.000000</ele>
        <time>2008-01-30T12:39:47Z</time>
      </trkpt>
      <trkpt lat="50.551578" lon="6.243271">
        <ele>471.000000</ele>
        <time>2008-01-30T12:39:54Z</time>
      </trkpt>
      <trkpt lat="50.551452" lon="6.243236">
        <ele>471.000000</ele>
        <time>2008-01-30T12:39:59Z</time>
      </trkpt>
      <trkpt lat="50.551325" lon="6.243201">
        <ele>471.000000</ele>
        <time>2008-01-30T12:40:04Z</time>
      </trkpt>
      <trkpt lat="50.551223" lon="6.243066">
        <ele>484.000000</ele>
        <time>2008-01-30T12:40:10Z</time>
      </trkpt>
      <trkpt lat="50.551016" lon="6.242697">
        <ele>479.000000</ele>
        <time>2008-01-30T12:40:22Z</time>
      </trkpt>
      <trkpt lat="50.550882" lon="6.242352">
        <ele>479.000000</ele>
        <time>2008-01-30T12:40:32Z</time>
      </trkpt>
      <trkpt lat="50.550862" lon="6.242240">
        <ele>479.000000</ele>
        <time>2008-01-30T12:40:35Z</time>
      </trkpt>
      <trkpt lat="50.551020" lon="6.242076">
        <ele>475.000000</ele>
        <time>2008-01-30T12:40:43Z</time>
      </trkpt>
      <trkpt lat="50.551044" lon="6.241947">
        <ele>475.000000</ele>
        <time>2008-01-30T12:40:46Z</time>
      </trkpt>
      <trkpt lat="50.551082" lon="6.240915">
        <ele>476.000000</ele>
        <time>2008-01-30T12:41:13Z</time>
      </trkpt>
      <trkpt lat="50.551143" lon="6.240431">
        <ele>476.000000</ele>
        <time>2008-01-30T12:41:25Z</time>
      </trkpt>
      <trkpt lat="50.551190" lon="6.240160">
        <ele>477.000000</ele>
        <time>2008-01-30T12:41:32Z</time>
      </trkpt>
      <trkpt lat="50.551305" lon="6.239702">
        <ele>432.000000</ele>
        <time>2008-01-30T12:41:45Z</time>
      </trkpt>
      <trkpt lat="50.551449" lon="6.239313">
        <ele>437.000000</ele>
        <time>2008-01-30T12:41:56Z</time>
      </trkpt>
      <trkpt lat="50.551629" lon="6.238949">
        <ele>437.000000</ele>
        <time>2008-01-30T12:42:08Z</time>
      </trkpt>
      <trkpt lat="50.551891" lon="6.238609">
        <ele>442.000000</ele>
        <time>2008-01-30T12:42:22Z</time>
      </trkpt>
      <trkpt lat="50.552066" lon="6.238430">
        <ele>442.000000</ele>
        <time>2008-01-30T12:42:30Z</time>
      </trkpt>
      <trkpt lat="50.552331" lon="6.238217">
        <ele>418.000000</ele>
        <time>2008-01-30T12:42:42Z</time>
      </trkpt>
      <trkpt lat="50.552361" lon="6.238356">
        <ele>418.000000</ele>
        <time>2008-01-30T12:42:46Z</time>
      </trkpt>
      <trkpt lat="50.552143" lon="6.238623">
        <ele>418.000000</ele>
        <time>2008-01-30T12:42:57Z</time>
      </trkpt>
      <trkpt lat="50.552104" lon="6.238865">
        <ele>424.000000</ele>
        <time>2008-01-30T12:43:03Z</time>
      </trkpt>
      <trkpt lat="50.552178" lon="6.239369">
        <ele>424.000000</ele>
        <time>2008-01-30T12:43:16Z</time>
      </trkpt>
      <trkpt lat="50.552095" lon="6.239628">
        <ele>431.000000</ele>
        <time>2008-01-30T12:43:24Z</time>
      </trkpt>
      <trkpt lat="50.552039" lon="6.239927">
        <ele>432.000000</ele>
        <time>2008-01-30T12:43:32Z</time>
      </trkpt>
      <trkpt lat="50.552019" lon="6.240239">
        <ele>432.000000</ele>
        <time>2008-01-30T12:43:40Z</time>
      </trkpt>
      <trkpt lat="50.552021" lon="6.240705">
        <ele>433.000000</ele>
        <time>2008-01-30T12:43:51Z</time>
      </trkpt>
      <trkpt lat="50.552054" lon="6.240943">
        <ele>433.000000</ele>
        <time>2008-01-30T12:43:58Z</time>
      </trkpt>
      <trkpt lat="50.552105" lon="6.241208">
        <ele>424.000000</ele>
        <time>2008-01-30T12:44:05Z</time>
      </trkpt>
      <trkpt lat="50.552174" lon="6.241458">
        <ele>416.000000</ele>
        <time>2008-01-30T12:44:12Z</time>
      </trkpt>
      <trkpt lat="50.552259" lon="6.241650">
        <ele>416.000000</ele>
        <time>2008-01-30T12:44:17Z</time>
      </trkpt>
      <trkpt lat="50.552370" lon="6.241771">
        <ele>416.000000</ele>
        <time>2008-01-30T12:44:23Z</time>
      </trkpt>
      <trkpt lat="50.552471" lon="6.241864">
        <ele>416.000000</ele>
        <time>2008-01-30T12:44:28Z</time>
      </trkpt>
      <trkpt lat="50.552616" lon="6.241912">
        <ele>416.000000</ele>
        <time>2008-01-30T12:44:34Z</time>
      </trkpt>
      <trkpt lat="50.552769" lon="6.241917">
        <ele>416.000000</ele>
        <time>2008-01-30T12:44:40Z</time>
      </trkpt>
      <trkpt lat="50.552930" lon="6.241879">
        <ele>415.000000</ele>
        <time>2008-01-30T12:44:46Z</time>
      </trkpt>
      <trkpt lat="50.553072" lon="6.241801">
        <ele>415.000000</ele>
        <time>2008-01-30T12:44:52Z</time>
      </trkpt>
      <trkpt lat="50.553241" lon="6.241692">
        <ele>415.000000</ele>
        <time>2008-01-30T12:44:59Z</time>
      </trkpt>
      <trkpt lat="50.553427" lon="6.241582">
        <ele>415.000000</ele>
        <time>2008-01-30T12:45:07Z</time>
      </trkpt>
      <trkpt lat="50.554127" lon="6.241174">
        <ele>421.000000</ele>
        <time>2008-01-30T12:45:37Z</time>
      </trkpt>
      <trkpt lat="50.554267" lon="6.241364">
        <ele>413.000000</ele>
        <time>2008-01-30T12:45:45Z</time>
      </trkpt>
      <trkpt lat="50.554396" lon="6.241498">
        <ele>413.000000</ele>
        <time>2008-01-30T12:45:51Z</time>
      </trkpt>
      <trkpt lat="50.554532" lon="6.241560">
        <ele>413.000000</ele>
        <time>2008-01-30T12:45:57Z</time>
      </trkpt>
      <trkpt lat="50.554677" lon="6.241608">
        <ele>412.000000</ele>
        <time>2008-01-30T12:46:02Z</time>
      </trkpt>
      <trkpt lat="50.554815" lon="6.241727">
        <ele>412.000000</ele>
        <time>2008-01-30T12:46:09Z</time>
      </trkpt>
      <trkpt lat="50.554906" lon="6.241792">
        <ele>412.000000</ele>
        <time>2008-01-30T12:46:13Z</time>
      </trkpt>
      <trkpt lat="50.555026" lon="6.241926">
        <ele>412.000000</ele>
        <time>2008-01-30T12:46:19Z</time>
      </trkpt>
      <trkpt lat="50.555111" lon="6.242077">
        <ele>412.000000</ele>
        <time>2008-01-30T12:46:24Z</time>
      </trkpt>
      <trkpt lat="50.555160" lon="6.242243">
        <ele>411.000000</ele>
        <time>2008-01-30T12:46:28Z</time>
      </trkpt>
      <trkpt lat="50.555156" lon="6.242441">
        <ele>411.000000</ele>
        <time>2008-01-30T12:46:33Z</time>
      </trkpt>
      <trkpt lat="50.555135" lon="6.242696">
        <ele>411.000000</ele>
        <time>2008-01-30T12:46:40Z</time>
      </trkpt>
      <trkpt lat="50.555068" lon="6.242940">
        <ele>409.000000</ele>
        <time>2008-01-30T12:46:47Z</time>
      </trkpt>
      <trkpt lat="50.554975" lon="6.243186">
        <ele>409.000000</ele>
        <time>2008-01-30T12:46:54Z</time>
      </trkpt>
      <trkpt lat="50.554909" lon="6.243401">
        <ele>409.000000</ele>
        <time>2008-01-30T12:47:00Z</time>
      </trkpt>
      <trkpt lat="50.554860" lon="6.243630">
        <ele>409.000000</ele>
        <time>2008-01-30T12:47:06Z</time>
      </trkpt>
      <trkpt lat="50.554811" lon="6.243830">
        <ele>408.000000</ele>
        <time>2008-01-30T12:47:12Z</time>
      </trkpt>
      <trkpt lat="50.554787" lon="6.243959">
        <ele>408.000000</ele>
        <time>2008-01-30T12:47:15Z</time>
      </trkpt>
      <trkpt lat="50.554670" lon="6.244361">
        <ele>408.000000</ele>
        <time>2008-01-30T12:47:26Z</time>
      </trkpt>
      <trkpt lat="50.554461" lon="6.245008">
        <ele>423.000000</ele>
        <time>2008-01-30T12:47:45Z</time>
      </trkpt>
    </trkseg>
  </trk>

</gpx>
